createdAt,value
2022-08-22T00:02:57.845Z,2.53
2022-08-22T00:03:10.470Z,2.22
2022-08-22T00:03:12.822Z,0.80
2022-08-22T02:29:22.919Z,1.77
2022-08-22T02:43:30.342Z,1.88
2022-08-22T02:46:00.860Z,2.45
2022-08-22T02:48:32.420Z,3.83
2022-08-22T02:51:02.405Z,2.17
2022-08-22T02:53:34.340Z,2.00
2022-08-22T02:56:17.584Z,2.83
2022-08-22T02:58:48.539Z,1.90
2022-08-22T03:01:23.831Z,2.30
2022-08-22T03:03:52.376Z,2.50
2022-08-22T03:06:38.476Z,2.85
2022-08-22T03:09:21.699Z,2.63
2022-08-22T03:12:15.279Z,3.15
2022-08-22T03:14:45.729Z,3.42
2022-08-22T03:17:23.642Z,2.28
2022-08-22T03:19:57.710Z,2.95
2022-08-22T03:22:25.281Z,3.78
2022-08-22T03:25:08.450Z,2.10
2022-08-22T03:27:40.144Z,1.85
2022-08-22T03:30:14.336Z,1.87
2022-08-22T03:32:54.309Z,2.58
2022-08-22T03:35:33.229Z,2.25
2022-08-22T03:38:15.319Z,2.58
2022-08-22T03:40:46.294Z,4.22
2022-08-22T03:43:34.095Z,2.38
2022-08-22T03:46:02.275Z,3.10
2022-08-22T03:49:05.278Z,4.90
2022-08-22T03:51:44.981Z,2.80
2022-08-22T03:54:12.409Z,3.40
2022-08-22T03:56:39.906Z,3.25
2022-08-22T03:59:10.079Z,2.45
2022-08-22T04:01:38.284Z,2.47
2022-08-22T04:04:12.253Z,2.70
2022-08-22T04:07:31.758Z,3.70
2022-08-22T04:10:18.239Z,2.75
2022-08-22T04:12:45.662Z,2.55
2022-08-22T04:15:20.511Z,5.95
2022-08-22T04:18:00.054Z,5.35
2022-08-22T04:20:27.745Z,3.03
2022-08-22T04:23:14.632Z,3.45
2022-08-22T04:25:44.105Z,6.90
2022-08-22T04:28:17.484Z,4.95
2022-08-22T04:30:49.495Z,3.95
2022-08-22T04:33:25.550Z,3.85
2022-08-22T04:35:56.061Z,3.00
2022-08-22T04:38:27.726Z,3.38
2022-08-22T04:41:04.594Z,3.33
2022-08-22T04:43:35.520Z,3.78
2022-08-22T04:46:12.419Z,3.42
2022-08-22T04:48:43.771Z,4.60
2022-08-22T04:51:20.484Z,4.68
2022-08-22T04:53:48.248Z,4.00
2022-08-22T04:56:35.146Z,3.45
2022-08-22T04:59:05.340Z,4.45
2022-08-22T05:02:07.019Z,3.55
2022-08-22T05:04:57.570Z,3.78
2022-08-22T05:07:27.883Z,3.05
2022-08-22T05:10:09.295Z,4.38
2022-08-22T05:12:46.015Z,4.32
2022-08-22T05:15:23.149Z,4.00
2022-08-22T05:17:52.493Z,7.82
2022-08-22T05:20:22.695Z,4.97
2022-08-22T05:22:55.961Z,3.83
2022-08-22T05:25:26.426Z,4.13
2022-08-22T05:27:56.790Z,4.93
2022-08-22T05:30:26.314Z,4.00
2022-08-22T05:33:02.850Z,6.10
2022-08-22T05:35:50.217Z,3.40
2022-08-22T05:38:23.777Z,4.38
2022-08-22T05:40:55.597Z,3.53
2022-08-22T05:43:26.007Z,4.57
2022-08-22T05:45:56.628Z,3.40
2022-08-22T05:48:31.582Z,4.20
2022-08-22T05:51:05.366Z,4.80
2022-08-22T05:53:44.824Z,4.13
2022-08-22T05:56:15.056Z,3.95
2022-08-22T05:58:42.520Z,7.18
2022-08-22T06:01:16.450Z,5.18
2022-08-22T06:03:47.744Z,5.03
2022-08-22T06:06:17.231Z,5.30
2022-08-22T06:08:47.416Z,4.70
2022-08-22T06:11:19.106Z,6.07
2022-08-22T06:13:54.181Z,5.55
2022-08-22T06:16:47.377Z,4.55
2022-08-22T06:19:19.186Z,8.02
2022-08-22T06:21:49.377Z,4.18
2022-08-22T06:24:24.470Z,4.90
2022-08-22T06:26:53.192Z,6.47
2022-08-22T06:29:31.181Z,6.20
2022-08-22T06:32:01.655Z,5.38
2022-08-22T06:34:31.152Z,5.80
2022-08-22T06:36:59.594Z,4.90
2022-08-22T06:39:30.856Z,6.70
2022-08-22T06:42:03.757Z,6.13
2022-08-22T06:44:32.668Z,5.53
2022-08-22T06:47:01.687Z,5.57
2022-08-22T06:49:30.941Z,5.47
2022-08-22T06:52:00.983Z,5.90
2022-08-22T06:54:34.256Z,4.70
2022-08-22T06:57:03.794Z,6.35
2022-08-22T06:59:32.305Z,6.53
2022-08-22T07:02:07.665Z,6.57
2022-08-22T07:04:35.233Z,8.93
2022-08-22T07:07:03.168Z,5.60
2022-08-22T07:09:36.566Z,10.32
2022-08-22T07:12:11.612Z,8.05
2022-08-22T07:14:43.803Z,8.93
2022-08-22T07:17:22.740Z,11.57
2022-08-22T07:20:11.564Z,16.38
2022-08-22T07:22:39.239Z,8.10
2022-08-22T07:25:16.849Z,8.77
2022-08-22T07:27:53.569Z,12.95
2022-08-22T07:30:27.528Z,11.23
2022-08-22T07:33:26.286Z,10.57
2022-08-22T07:35:53.675Z,6.53
2022-08-22T07:38:30.463Z,9.95
2022-08-22T07:40:58.085Z,8.18
2022-08-22T07:43:41.269Z,6.72
2022-08-22T07:46:08.852Z,5.20
2022-08-22T07:49:05.850Z,7.18
2022-08-22T07:51:41.608Z,5.97
2022-08-22T07:54:10.839Z,6.05
2022-08-22T07:56:42.937Z,7.38
2022-08-22T07:59:12.985Z,4.75
2022-08-22T08:01:45.925Z,7.95
2022-08-22T08:06:42.011Z,4.13
2022-08-22T08:09:13.824Z,5.03
2022-08-22T08:11:41.887Z,6.00
2022-08-22T08:14:09.871Z,6.07
2022-08-22T08:16:43.965Z,6.00
2022-08-22T08:19:12.912Z,6.55
2022-08-22T08:21:50.000Z,5.90
2022-08-22T08:24:21.401Z,5.45
2022-08-22T08:27:12.014Z,5.18
2022-08-22T08:29:40.998Z,6.35
2022-08-22T08:32:11.006Z,10.43
2022-08-22T08:34:39.834Z,8.88
2022-08-22T08:37:16.023Z,9.70
2022-08-22T08:39:43.642Z,5.85
2022-08-22T08:42:20.952Z,6.85
2022-08-22T08:44:49.233Z,5.82
2022-08-22T08:47:22.932Z,5.65
2022-08-22T08:50:09.495Z,5.80
2022-08-22T08:52:41.050Z,7.13
2022-08-22T08:55:22.897Z,5.78
2022-08-22T08:58:06.608Z,5.28
2022-08-22T09:00:34.980Z,5.95
2022-08-22T09:03:11.839Z,7.20
2022-08-22T09:05:52.763Z,6.88
2022-08-22T09:08:29.773Z,9.65
2022-08-22T09:10:58.664Z,5.50
2022-08-22T09:13:42.590Z,5.57
2022-08-22T09:16:12.011Z,6.32
2022-08-22T09:19:02.666Z,7.90
2022-08-22T09:21:45.696Z,5.90
2022-08-22T09:24:32.499Z,6.07
2022-08-22T09:27:02.151Z,11.38
2022-08-22T09:29:54.776Z,9.57
2022-08-22T09:32:40.368Z,6.95
2022-08-22T09:35:13.518Z,6.95
2022-08-22T09:38:10.706Z,9.25
2022-08-22T09:40:53.172Z,9.68
2022-08-22T09:43:33.694Z,9.65
2022-08-22T09:46:01.950Z,6.65
2022-08-22T09:48:44.284Z,6.20
2022-08-22T09:51:33.201Z,7.57
2022-08-22T09:54:06.814Z,5.72
2022-08-22T09:56:39.668Z,6.95
2022-08-22T09:59:26.643Z,9.20
2022-08-22T10:02:00.251Z,5.78
2022-08-22T10:04:41.996Z,7.68
2022-08-22T10:07:12.072Z,6.80
2022-08-22T10:09:59.484Z,7.15
2022-08-22T10:12:36.181Z,8.07
2022-08-22T10:15:11.081Z,7.38
2022-08-22T10:17:43.105Z,8.30
2022-08-22T10:20:18.238Z,6.57
2022-08-22T10:22:56.277Z,10.52
2022-08-22T10:25:30.926Z,6.78
2022-08-22T10:30:52.568Z,11.98
2022-08-22T10:33:40.909Z,8.63
2022-08-22T10:36:14.742Z,8.52
2022-08-22T10:38:52.241Z,8.45
2022-08-22T10:41:29.613Z,5.72
2022-08-22T10:44:08.239Z,6.28
2022-08-22T10:47:01.312Z,6.57
2022-08-22T10:49:32.892Z,9.10
2022-08-22T10:52:16.217Z,7.00
2022-08-22T10:57:23.952Z,6.00
2022-08-22T11:00:01.514Z,9.43
2022-08-22T11:02:44.715Z,4.88
2022-08-22T11:05:15.649Z,5.35
2022-08-22T11:08:00.433Z,5.13
2022-08-22T11:10:27.896Z,6.03
2022-08-22T11:13:22.874Z,9.45
2022-08-22T11:16:00.434Z,5.07
2022-08-22T11:18:41.473Z,8.23
2022-08-22T11:21:39.089Z,9.23
2022-08-22T11:24:07.170Z,8.98
2022-08-22T11:26:47.827Z,7.00
2022-08-22T11:29:25.233Z,6.18
2022-08-22T11:32:07.812Z,5.85
2022-08-22T11:34:42.393Z,5.80
2022-08-22T11:37:23.957Z,6.63
2022-08-22T11:40:12.239Z,9.75
2022-08-22T11:42:49.016Z,5.97
2022-08-22T11:45:21.950Z,8.43
2022-08-22T11:48:01.173Z,8.15
2022-08-22T11:50:35.603Z,7.47
2022-08-22T11:53:11.998Z,6.60
2022-08-22T11:55:42.479Z,8.32
2022-08-22T11:58:29.294Z,6.50
2022-08-22T12:01:26.608Z,8.90
2022-08-22T12:04:03.458Z,8.35
2022-08-22T12:06:46.736Z,10.32
2022-08-22T12:54:42.179Z,27.15
2022-08-22T12:57:23.571Z,20.40
2022-08-22T13:00:00.055Z,21.38
2022-08-22T13:02:32.315Z,21.02
2022-08-22T13:05:09.774Z,24.70
2022-08-22T13:07:40.136Z,23.75
2022-08-22T13:10:17.395Z,21.63
2022-08-22T13:15:36.319Z,18.50
2022-08-22T13:18:30.315Z,15.00
2022-08-22T13:21:02.760Z,14.60
2022-08-22T13:23:39.865Z,9.57
2022-08-22T13:39:42.222Z,10.80
2022-08-22T13:42:29.777Z,12.05
2022-08-22T13:44:59.224Z,12.80
2022-08-22T13:47:31.806Z,16.35
2022-08-22T13:50:13.975Z,11.30
2022-08-22T13:52:55.254Z,13.40
2022-08-22T13:55:35.215Z,16.52
2022-08-22T13:58:27.096Z,15.88
2022-08-22T14:01:07.410Z,19.48
2022-08-22T14:03:41.720Z,16.23
2022-08-22T17:38:49.319Z,4.78
2022-08-22T17:51:57.464Z,6.07
2022-08-22T19:41:46.622Z,4.18
2022-08-22T20:38:05.935Z,6.22
2022-08-22T20:40:55.163Z,6.03
2022-08-22T20:43:30.181Z,3.88
2022-08-22T22:47:40.674Z,2.55
2022-08-22T23:03:32.600Z,3.88
2022-08-22T23:06:00.301Z,4.22
2022-08-22T23:24:32.610Z,4.30
2022-08-22T23:27:01.321Z,3.95
2022-08-22T23:45:44.600Z,5.60
2022-08-22T23:56:29.576Z,5.53
2022-08-22T23:58:57.190Z,6.38
